ADDS METAR Data INFO
IDs: Format: Raw Decoded Include TAF

Data at: 0715 UTC 24 Jun 2018

KVTP 240653Z AUTO 20013G19KT 10SM CLR 14/M10 A3034 RMK AO2
KVTP 240636Z AUTO 10SM CLR 15/M10 A3035 RMK AO2 LTG DSNT N AND NE
KVTP 240612Z AUTO 20015G20KT 10SM CLR 15/M08 A3036 RMK AO2
KVTP 240554Z AUTO 20013G20KT 10SM CLR 15/M08 A3037 RMK AO2 LTG DSNT N
KVTP 240536Z AUTO 21012G19KT 10SM CLR 15/M08 A3037 RMK AO2
KVTP 240512Z AUTO 10SM CLR 15/M07 A3037 RMK AO2
KVTP 240453Z AUTO 10SM CLR 15/M07 A3037 RMK AO2
KVTP 240435Z AUTO 10SM CLR 15/M07 A3037 RMK AO2
KVTP 240417Z AUTO 10SM CLR 16/M08 A3037 RMK AO2
KVTP 240357Z AUTO 21012KT 10SM VCTS CLR 16/M08 A3036 RMK AO2
KVTP 240333Z AUTO 10SM SCT120 17/M08 A3036 RMK AO2
KVTP 240315Z AUTO 20009G19KT 10SM SCT120 17/M07 A3036 RMK AO2 LTG DSNT N
KVTP 240254Z AUTO 10SM SCT120 17/M07 A3035 RMK AO2
KVTP 240236Z AUTO 10SM SCT120 18/M07 A3034 RMK AO2
KVTP 240212Z AUTO 21006KT 180V240 10SM CLR 18/M07 A3034 RMK AO2
KVTP 240154Z AUTO 10SM CLR 18/M07 A3034 RMK AO2
KVTP 240136Z AUTO 10SM CLR 18/M07 A3034 RMK AO2
KVTP 240112Z AUTO 10SM CLR 20/M07 A3033 RMK AO2
KVTP 240057Z AUTO 10SM CLR 20/M07 A3033 RMK AO2 LTG DSNT N
KVTP 240033Z AUTO 10SM CLR 21/M07 A3033 RMK AO2 LTG DSNT NE
KVTP 240015Z AUTO 19013G24KT 10SM CLR 22/M07 A3032 RMK AO2
KVTP 232352Z AUTO 10SM CLR 20/M08 A3033 RMK AO2 LTG DSNT N AND NE
KVTP 232334Z AUTO 19018G25KT 10SM CLR 23/M07 A3033 RMK AO2
KVTP 232317Z AUTO 19016KT 10SM CLR 21/M08 A3034 RMK AO2
KVTP 232254Z AUTO 20010KT 10SM CLR 21/M08 A3034 RMK AO2
KVTP 232236Z AUTO 19010KT 150V230 10SM CLR 24/M08 A3034 RMK AO2 LTG DSNT N
KVTP 232212Z AUTO 10SM CLR 25/M08 A3034 RMK AO2
KVTP 232154Z AUTO 10SM CLR 24/M08 A3035 RMK AO2
KVTP 232136Z AUTO 10SM CLR 24/M08 A3035 RMK AO2
KVTP 232112Z AUTO 10SM CLR 24/M08 A3036 RMK AO2
KVTP 232054Z AUTO 20009KT 080V270 10SM VCTS CLR 24/M08 A3037 RMK AO2
KVTP 232036Z AUTO 19008KT 010V230 10SM CLR 25/M08 A3037 RMK AO2 LTG DSNT N
KVTP 232012Z AUTO 10SM CLR 24/M08 A3038 RMK AO2
KVTP 231953Z AUTO 10SM CLR 24/M08 A3038 RMK AO2
KVTP 231935Z AUTO 10SM CLR 23/M08 A3038 RMK AO2
KVTP 231917Z AUTO 10SM CLR 24/M07 A3039 RMK AO2
KVTP 231854Z AUTO 20013G29KT 180V260 10SM CLR 24/M06 A3040 RMK AO2
KVTP 231836Z AUTO 20015G28KT 10SM CLR 23/M05 A3039 RMK AO2
KVTP 231812Z AUTO 18015G28KT 10SM CLR 21/M07 A3040 RMK AO2
KVTP 231754Z AUTO 10SM CLR 21/M08 A3040 RMK AO2
KVTP 231736Z AUTO 10SM CLR 21/M07 A3040 RMK AO2
KVTP 231712Z AUTO 20015G24KT 10SM CLR 21/M06 A3040 RMK AO2
KVTP 231654Z AUTO 20011G21KT 10SM CLR 20/M05 A3041 RMK AO2
KVTP 231636Z AUTO 19010G20KT 150V230 10SM CLR 19/M03 A3041 RMK AO2
KVTP 231612Z AUTO 19009G18KT 140V230 10SM CLR 18/M04 A3041 RMK AO2
KVTP 231554Z AUTO 20009G19KT 10SM CLR 18/M03 A3042 RMK AO2
KVTP 231536Z AUTO 20008G17KT 10SM CLR 17/M01 A3042 RMK AO2
KVTP 231512Z AUTO 22008KT 190V330 10SM CLR 16/00 A3042 RMK AO2
KVTP 231454Z AUTO 10SM CLR 15/02 A3042 RMK AO2
KVTP 231436Z AUTO 10SM CLR 14/03 A3042 RMK AO2
KVTP 231412Z AUTO 10SM CLR 12/03 A3041 RMK AO2
KVTP 231354Z AUTO 10SM CLR 12/02 A3041 RMK AO2
KVTP 231336Z AUTO 10SM CLR 12/02 A3040 RMK AO2
KVTP 231312Z AUTO 17004KT 10SM CLR 12/02 A3040 RMK AO2
KVTP 231254Z AUTO 15005KT 10SM CLR 11/03 A3040 RMK AO2
KVTP 231236Z AUTO 15004KT 10SM CLR 11/05 A3040 RMK AO2
KVTP 231212Z AUTO 00000KT 10SM CLR 11/06 A3040 RMK AO2
KVTP 231154Z AUTO 00000KT 10SM CLR 10/06 A3041 RMK AO2
KVTP 231136Z AUTO 10SM CLR 09/06 A3040 RMK AO2
KVTP 231112Z AUTO 10SM CLR 09/06 A3041 RMK AO2
KVTP 231053Z AUTO 10SM CLR 09/08 A3041 RMK AO2
KVTP 231035Z AUTO 36009G14KT 310V020 7SM CLR 09/08 A3041 RMK AO2
KVTP 231012Z AUTO 02009G14KT 5SM BR CLR 09/08 A3042 RMK AO2
KVTP 230954Z AUTO 02013G16KT 10SM CLR 09/08 A3042 RMK AO2
KVTP 230936Z AUTO 10SM CLR 09/07 A3042 RMK AO2
KVTP 230912Z AUTO 10SM SCT014 BKN020 10/07 A3040 RMK AO2
KVTP 230852Z AUTO 03012KT 10SM SCT010 BKN014 BKN022 10/08 A3041 RMK AO2
KVTP 230834Z AUTO 10SM SCT010 BKN014 BKN022 11/10 A3041 RMK AO2
KVTP 230816Z AUTO 10SM SCT006 SCT012 10/08 A3041 RMK AO2
KVTP 230754Z AUTO 10SM SCT006 SCT010 11/09 A3041 RMK AO2
KVTP 230736Z AUTO 10SM CLR 11/09 A3041 RMK AO2
KVTP 230712Z AUTO 04008KT 10SM CLR 11/10 A3042 RMK AO2
KVTP 230653Z AUTO 10SM CLR 11/09 A3042 RMK AO2
KVTP 230636Z AUTO 10SM CLR 11/10 A3042 RMK AO2 LTG DSNT N AND NE
KVTP 230612Z AUTO 04008KT 010V090 10SM CLR 11/10 A3042 RMK AO2
KVTP 230554Z AUTO 10SM SCT002 10/09 A3042 RMK AO2
KVTP 230536Z AUTO 06006KT 2 1/2SM BR BKN002 10/08 A3043 RMK AO2 VIS 1/2V5
KVTP 230512Z AUTO 3/4SM BR OVC002 11/10 A3044 RMK AO2
KVTP 230454Z AUTO 2 1/2SM BR OVC002 11/10 A3044 RMK AO2 VIS 1V5
KVTP 230436Z AUTO 03013G24KT 7SM BKN002 BKN008 BKN120 12/10 A3044 RMK AO2
KVTP 230412Z AUTO 02015G20KT 10SM SCT120 12/07 A3044 RMK AO2
KVTP 230354Z AUTO 03018G29KT 10SM SCT120 13/06 A3042 RMK AO2
KVTP 230336Z AUTO 02018G30KT 10SM SCT120 14/06 A3042 RMK AO2
KVTP 230312Z AUTO 01008KT 10SM SCT120 16/00 A3041 RMK AO2
KVTP 230254Z AUTO 27009KT 10SM SCT110 17/M07 A3038 RMK AO2
KVTP 230236Z AUTO 10SM SCT120 17/M07 A3038 RMK AO2
KVTP 230212Z AUTO 27005KT 10SM BKN110 18/M06 A3037 RMK AO2
KVTP 230154Z AUTO 10SM BKN120 18/M06 A3036 RMK AO2
KVTP 230136Z AUTO 10SM BKN120 18/M05 A3036 RMK AO2
KVTP 230112Z AUTO 10SM CLR 18/M01 A3035 RMK AO2
KVTP 230057Z AUTO 10SM CLR 20/M03 A3035 RMK AO2
KVTP 230033Z AUTO 10SM SCT110 18/M02 A3035 RMK AO2
KVTP 230015Z AUTO 20007KT 10SM VCTS SCT110 17/04 A3036 RMK AO2
KVTP 222354Z AUTO 28010KT 10SM BKN120 17/03 A3035 RMK AO2 LTG DSNT SE
KVTP 222336Z AUTO 04003KT 10SM SCT120 15/06 A3036 RMK AO2
KVTP 222312Z AUTO 36007KT 10SM SCT100 BKN120 17/06 A3036 RMK AO2 LTG DSNT N
KVTP 222254Z AUTO 02008KT 10SM OVC120 15/06 A3037 RMK AO2
KVTP 222236Z AUTO 02011G17KT 10SM BKN120 16/06 A3037 RMK AO2 LTG DSNT SE
KVTP 222212Z AUTO 01007G16KT 10SM SCT095 SCT120 18/06 A3037 RMK AO2
KVTP 222152Z AUTO 01007G15KT 10SM SCT100 SCT120 17/06 A3037 RMK AO2
KVTP 222135Z AUTO 03010G18KT 10SM SCT120 17/06 A3038 RMK AO2 LTG DSNT SE
KVTP 222117Z AUTO 36010G18KT 10SM CLR 15/07 A3040 RMK AO2
KVTP 222054Z AUTO 03022G29KT 10SM CLR 17/07 A3040 RMK AO2
KVTP 222036Z AUTO 03012G25KT 350V080 10SM CLR 18/07 A3039 RMK AO2
KVTP 222012Z AUTO 26005KT 10SM CLR 25/M07 A3042 RMK AO2
KVTP 221954Z AUTO 20013G26KT 150V240 10SM CLR 27/M07 A3041 RMK AO2
KVTP 221936Z AUTO 10SM CLR 26/M06 A3041 RMK AO2